Time;durP1;ratioP1;P1;durP2;ratioP2;P2;SDS_P1;SDS_P2;PMS_P1;PMS_P2;Temp;Humidity;BMP_temperature;BMP_pressure;BME280_temperature;BME280_humidity;BME280_pressure;Samples;Min_cycle;Max_cycle;Signal;HPM_P1;HPM_P2
2022/03/08 00:01:08;;;;;;;18.75;8.57;;;;;;;;;;4950241;28;20056;-63
2022/03/08 00:03:35;;;;;;;18.40;8.05;;;;;;;;;;4950495;28;20156;-63
2022/03/08 00:06:01;;;;;;;15.80;8.32;;;;;;;;;;4950147;28;20051;-63
2022/03/08 00:08:29;;;;;;;21.40;8.53;;;;;;;;;;4950571;28;20178;-63
2022/03/08 00:10:55;;;;;;;18.63;8.85;;;;;;;;;;4949180;28;20497;-64
2022/03/08 00:13:22;;;;;;;16.58;8.07;;;;;;;;;;4949634;28;20083;-63
2022/03/08 00:15:49;;;;;;;21.00;8.38;;;;;;;;;;4950639;28;20079;-63
2022/03/08 00:18:17;;;;;;;14.93;7.68;;;;;;;;;;4950400;28;20065;-63
2022/03/08 00:20:43;;;;;;;15.25;8.35;;;;;;;;;;4949655;28;20059;-63
2022/03/08 00:23:09;;;;;;;17.65;8.38;;;;;;;;;;4930661;29;20139;-64
2022/03/08 00:25:36;;;;;;;17.05;8.52;;;;;;;;;;4936949;28;20091;-63
2022/03/08 00:28:02;;;;;;;18.20;9.02;;;;;;;;;;4950778;28;20058;-63
2022/03/08 00:30:29;;;;;;;16.00;8.45;;;;;;;;;;4949003;28;20056;-63
2022/03/08 00:32:56;;;;;;;16.38;8.63;;;;;;;;;;4949421;28;20047;-63
2022/03/08 00:35:23;;;;;;;18.20;8.70;;;;;;;;;;4949437;28;20138;-63
2022/03/08 00:37:50;;;;;;;16.08;8.18;;;;;;;;;;4949290;28;20863;-64
2022/03/08 00:40:17;;;;;;;21.05;7.95;;;;;;;;;;4949619;28;20159;-64
2022/03/08 00:42:44;;;;;;;16.98;7.55;;;;;;;;;;4950032;28;20429;-63
2022/03/08 00:45:11;;;;;;;17.73;8.20;;;;;;;;;;4949636;28;20614;-64
2022/03/08 00:47:41;;;;;;;16.63;9.13;;;;;;;;;;4949770;28;20054;-64
2022/03/08 00:50:09;;;;;;;21.65;9.00;;;;;;;;;;4949929;28;20062;-64
2022/03/08 00:52:35;;;;;;;21.27;9.97;;;;;;;;;;4947990;28;20082;-64
2022/03/08 00:55:02;;;;;;;19.77;8.82;;;;;;;;;;4949810;28;21244;-64
2022/03/08 00:57:29;;;;;;;17.73;8.32;;;;;;;;;;4949798;28;20062;-64
2022/03/08 00:59:55;;;;;;;15.02;8.25;;;;;;;;;;4949404;28;20577;-64
2022/03/08 01:02:21;;;;;;;18.55;8.25;;;;;;;;;;4948782;28;20061;-64
2022/03/08 01:04:48;;;;;;;17.35;8.02;;;;;;;;;;4949326;28;20047;-64
2022/03/08 01:07:15;;;;;;;20.15;8.60;;;;;;;;;;4949557;28;20131;-64
2022/03/08 01:09:42;;;;;;;17.83;8.95;;;;;;;;;;4949436;28;20565;-65
2022/03/08 01:12:08;;;;;;;20.10;9.10;;;;;;;;;;4948575;28;20052;-63
2022/03/08 01:14:35;;;;;;;19.75;9.10;;;;;;;;;;4949200;28;20056;-65
2022/03/08 01:17:01;;;;;;;18.92;9.02;;;;;;;;;;4950003;28;20063;-64
2022/03/08 01:19:28;;;;;;;16.05;8.77;;;;;;;;;;4948406;28;20059;-64
2022/03/08 01:21:54;;;;;;;18.63;8.65;;;;;;;;;;4948069;28;20055;-64
2022/03/08 01:24:20;;;;;;;17.00;8.15;;;;;;;;;;4949373;28;20183;-64
2022/03/08 01:26:47;;;;;;;17.67;8.48;;;;;;;;;;4949542;28;20054;-64
2022/03/08 01:29:13;;;;;;;20.02;8.75;;;;;;;;;;4948752;28;20060;-64
2022/03/08 01:31:39;;;;;;;18.20;8.68;;;;;;;;;;4948505;28;20055;-64
2022/03/08 01:34:06;;;;;;;15.45;8.13;;;;;;;;;;4948657;28;20090;-64
2022/03/08 01:36:32;;;;;;;17.48;8.70;;;;;;;;;;4948884;28;20225;-64
2022/03/08 01:38:58;;;;;;;16.13;8.93;;;;;;;;;;4948476;28;20168;-64
2022/03/08 01:41:25;;;;;;;17.38;9.43;;;;;;;;;;4949060;28;20150;-64
2022/03/08 01:43:51;;;;;;;15.80;8.75;;;;;;;;;;4948891;28;20060;-65
2022/03/08 01:46:18;;;;;;;20.92;9.25;;;;;;;;;;4949172;28;20063;-64
2022/03/08 01:48:44;;;;;;;15.73;8.15;;;;;;;;;;4948477;28;20064;-64
2022/03/08 01:51:11;;;;;;;19.88;9.10;;;;;;;;;;4949101;28;20087;-64
2022/03/08 01:53:38;;;;;;;19.02;9.00;;;;;;;;;;4948286;28;20143;-64
2022/03/08 01:56:04;;;;;;;16.85;9.05;;;;;;;;;;4929713;29;20590;-64
2022/03/08 01:58:32;;;;;;;19.17;9.48;;;;;;;;;;4932579;28;20174;-64
2022/03/08 02:00:58;;;;;;;21.38;9.15;;;;;;;;;;4949049;28;20062;-64
2022/03/08 02:03:25;;;;;;;16.88;8.65;;;;;;;;;;4947638;28;20243;-64
2022/03/08 02:05:51;;;;;;;14.65;8.10;;;;;;;;;;4947153;28;20525;-64
2022/03/08 02:08:18;;;;;;;17.67;8.85;;;;;;;;;;4948295;28;20070;-64
2022/03/08 02:10:44;;;;;;;17.05;9.55;;;;;;;;;;4948306;28;20437;-64
2022/03/08 02:13:10;;;;;;;15.80;8.40;;;;;;;;;;4947377;28;20602;-64
2022/03/08 02:15:37;;;;;;;18.05;7.97;;;;;;;;;;4947606;28;20062;-64
2022/03/08 02:18:03;;;;;;;16.73;8.50;;;;;;;;;;4948963;28;20051;-64
2022/03/08 02:20:30;;;;;;;18.33;8.65;;;;;;;;;;4948147;28;20066;-64
2022/03/08 02:22:56;;;;;;;19.13;9.30;;;;;;;;;;4948362;28;20443;-64
2022/03/08 02:25:23;;;;;;;16.23;8.35;;;;;;;;;;4946756;28;20055;-64
2022/03/08 02:27:51;;;;;;;13.50;7.13;;;;;;;;;;4948590;28;20055;-64
2022/03/08 02:30:18;;;;;;;18.47;8.63;;;;;;;;;;4946422;28;20079;-64
2022/03/08 02:32:44;;;;;;;14.32;7.18;;;;;;;;;;4947355;28;20044;-64
2022/03/08 02:35:13;;;;;;;18.02;8.75;;;;;;;;;;4948651;28;20531;-64
2022/03/08 02:37:50;;;;;;;18.27;7.28;;;;;;;;;;4948016;28;20052;-64
2022/03/08 02:40:18;;;;;;;14.88;7.38;;;;;;;;;;4948154;28;20063;-64
2022/03/08 02:42:44;;;;;;;16.60;7.95;;;;;;;;;;4947832;28;20058;-64
2022/03/08 02:45:11;;;;;;;16.08;8.30;;;;;;;;;;4947586;28;20146;-65
2022/03/08 02:47:37;;;;;;;15.13;7.30;;;;;;;;;;4947361;28;20118;-64
2022/03/08 02:50:08;;;;;;;15.05;7.47;;;;;;;;;;4948159;28;20147;-65
2022/03/08 02:52:34;;;;;;;15.07;6.97;;;;;;;;;;4945932;28;20055;-64
2022/03/08 02:55:01;;;;;;;16.50;8.48;;;;;;;;;;4948255;28;20593;-64
2022/03/08 02:57:27;;;;;;;17.30;8.52;;;;;;;;;;4947404;28;20048;-65
2022/03/08 02:59:54;;;;;;;17.25;9.25;;;;;;;;;;4947911;28;20070;-64
2022/03/08 03:02:20;;;;;;;15.73;7.75;;;;;;;;;;4948309;28;20064;-64
2022/03/08 03:04:46;;;;;;;18.13;8.55;;;;;;;;;;4946532;28;20111;-64
2022/03/08 03:07:16;;;;;;;15.15;7.55;;;;;;;;;;4947888;28;20060;-64
2022/03/08 03:09:42;;;;;;;15.85;7.85;;;;;;;;;;4947830;28;20146;-64
2022/03/08 03:12:09;;;;;;;15.80;8.07;;;;;;;;;;4948137;28;20147;-64
2022/03/08 03:14:35;;;;;;;17.13;8.68;;;;;;;;;;4946915;28;20093;-64
2022/03/08 03:17:01;;;;;;;16.80;8.30;;;;;;;;;;4950909;28;20052;-65
2022/03/08 03:19:28;;;;;;;17.52;8.35;;;;;;;;;;4949815;28;20055;-64
2022/03/08 03:21:54;;;;;;;18.45;8.13;;;;;;;;;;4950979;28;20059;-64
2022/03/08 03:24:20;;;;;;;16.33;7.82;;;;;;;;;;4951149;28;20599;-64
2022/03/08 03:26:47;;;;;;;17.10;8.60;;;;;;;;;;4951953;28;20060;-64
2022/03/08 03:29:13;;;;;;;15.82;8.38;;;;;;;;;;4951671;28;20525;-65
2022/03/08 03:31:39;;;;;;;16.38;8.52;;;;;;;;;;4951213;28;20057;-64
2022/03/08 03:34:05;;;;;;;17.98;7.97;;;;;;;;;;4950679;28;20056;-64
2022/03/08 03:36:32;;;;;;;15.65;8.20;;;;;;;;;;4951093;28;20052;-64
2022/03/08 03:38:58;;;;;;;16.08;7.72;;;;;;;;;;4950565;28;20050;-64
2022/03/08 03:41:24;;;;;;;17.23;7.85;;;;;;;;;;4951543;28;20139;-65
2022/03/08 03:43:51;;;;;;;14.57;7.47;;;;;;;;;;4950992;28;20054;-65
2022/03/08 03:46:17;;;;;;;18.83;8.50;;;;;;;;;;4951457;28;20055;-65
2022/03/08 03:48:43;;;;;;;16.67;8.77;;;;;;;;;;4951073;28;20062;-65
2022/03/08 03:51:11;;;;;;;17.77;8.05;;;;;;;;;;4949685;28;20048;-65
2022/03/08 03:53:37;;;;;;;14.73;7.82;;;;;;;;;;4951009;28;20585;-65
2022/03/08 03:56:03;;;;;;;15.30;8.13;;;;;;;;;;4950535;28;20058;-65
2022/03/08 03:58:30;;;;;;;16.88;7.93;;;;;;;;;;4951792;28;20115;-65
2022/03/08 04:00:56;;;;;;;14.45;7.55;;;;;;;;;;4951567;28;20087;-65
2022/03/08 04:03:23;;;;;;;14.65;7.78;;;;;;;;;;4951138;28;20060;-65
2022/03/08 04:05:49;;;;;;;14.82;7.60;;;;;;;;;;4951254;28;20060;-66
2022/03/08 04:08:20;;;;;;;16.40;8.43;;;;;;;;;;4951581;28;20064;-65
2022/03/08 04:10:47;;;;;;;14.85;7.75;;;;;;;;;;4950798;28;20613;-65
2022/03/08 04:13:14;;;;;;;14.63;7.32;;;;;;;;;;4950701;28;20488;-65
2022/03/08 04:15:41;;;;;;;15.05;7.80;;;;;;;;;;4951037;28;20056;-65
2022/03/08 04:18:08;;;;;;;14.63;7.55;;;;;;;;;;4951322;28;20091;-65
2022/03/08 04:20:34;;;;;;;13.30;7.50;;;;;;;;;;4941129;28;20060;-65
2022/03/08 04:23:00;;;;;;;13.85;6.93;;;;;;;;;;4951021;28;20134;-65
2022/03/08 04:25:27;;;;;;;14.27;7.53;;;;;;;;;;4950128;28;20059;-65
2022/03/08 04:27:53;;;;;;;16.10;7.82;;;;;;;;;;4949970;28;20880;-65
2022/03/08 04:30:20;;;;;;;13.18;7.25;;;;;;;;;;4950164;28;20060;-65
2022/03/08 04:32:46;;;;;;;12.40;7.07;;;;;;;;;;4950219;28;20158;-65
2022/03/08 04:35:13;;;;;;;12.95;7.03;;;;;;;;;;4948569;28;20066;-65
2022/03/08 04:37:40;;;;;;;15.13;6.45;;;;;;;;;;4933919;28;20646;-65
2022/03/08 04:40:07;;;;;;;12.40;6.72;;;;;;;;;;4950181;28;20055;-65
2022/03/08 04:42:33;;;;;;;14.77;7.05;;;;;;;;;;4951055;28;20086;-65
2022/03/08 04:44:59;;;;;;;11.98;6.53;;;;;;;;;;4949327;28;20055;-65
2022/03/08 04:47:26;;;;;;;16.75;6.25;;;;;;;;;;4950672;28;20067;-65
2022/03/08 04:49:52;;;;;;;14.23;5.85;;;;;;;;;;4950431;28;20059;-65
2022/03/08 04:52:18;;;;;;;11.65;6.15;;;;;;;;;;4950351;28;20134;-65
2022/03/08 04:54:45;;;;;;;11.50;5.70;;;;;;;;;;4948905;28;20123;-65
2022/03/08 04:57:11;;;;;;;12.00;6.40;;;;;;;;;;4950851;28;20052;-65
2022/03/08 04:59:37;;;;;;;13.10;6.63;;;;;;;;;;4950763;28;20066;-65
2022/03/08 05:02:03;;;;;;;13.57;6.47;;;;;;;;;;4950908;28;20176;-65
2022/03/08 05:04:30;;;;;;;14.85;6.60;;;;;;;;;;4949380;28;20071;-65
2022/03/08 05:06:56;;;;;;;12.63;6.70;;;;;;;;;;4949840;28;20608;-65
2022/03/08 05:09:23;;;;;;;11.10;6.28;;;;;;;;;;4948810;28;20138;-65
2022/03/08 05:11:49;;;;;;;14.32;6.00;;;;;;;;;;4948578;28;20548;-65
2022/03/08 05:14:15;;;;;;;11.15;6.00;;;;;;;;;;4947932;28;20056;-65
2022/03/08 05:16:41;;;;;;;14.73;6.35;;;;;;;;;;4949239;28;20056;-65
2022/03/08 05:19:08;;;;;;;11.55;6.05;;;;;;;;;;4948610;28;20064;-65
2022/03/08 05:21:34;;;;;;;15.73;6.80;;;;;;;;;;4949795;28;20052;-65
2022/03/08 05:24:01;;;;;;;12.18;6.88;;;;;;;;;;4949622;28;20422;-65
2022/03/08 05:26:27;;;;;;;11.60;6.28;;;;;;;;;;4949278;28;20067;-65
2022/03/08 05:28:54;;;;;;;10.38;5.63;;;;;;;;;;4948234;28;20066;-65
2022/03/08 05:31:20;;;;;;;13.45;6.28;;;;;;;;;;4947730;28;20051;-65
2022/03/08 05:33:46;;;;;;;15.55;6.15;;;;;;;;;;4948577;28;20059;-65
2022/03/08 05:36:13;;;;;;;12.23;6.32;;;;;;;;;;4948227;28;20062;-65
2022/03/08 05:38:39;;;;;;;14.27;6.05;;;;;;;;;;4948611;28;20577;-65
2022/03/08 05:41:05;;;;;;;15.40;6.63;;;;;;;;;;4949879;28;20135;-65
2022/03/08 05:43:31;;;;;;;12.15;5.85;;;;;;;;;;4948836;28;20048;-65
2022/03/08 05:45:58;;;;;;;12.68;6.40;;;;;;;;;;4948207;28;20088;-65
2022/03/08 05:48:25;;;;;;;11.60;6.38;;;;;;;;;;4946961;28;20056;-65
2022/03/08 05:50:51;;;;;;;15.80;6.10;;;;;;;;;;4948286;28;20508;-65
2022/03/08 05:53:17;;;;;;;15.35;6.93;;;;;;;;;;4947879;28;20537;-63
2022/03/08 05:55:43;;;;;;;13.63;6.50;;;;;;;;;;4947777;28;20066;-63
2022/03/08 05:58:10;;;;;;;14.27;6.75;;;;;;;;;;4947967;28;20635;-63
2022/03/08 06:00:36;;;;;;;13.00;6.72;;;;;;;;;;4948934;28;20084;-63
2022/03/08 06:03:03;;;;;;;12.07;5.60;;;;;;;;;;4949117;28;20059;-63
2022/03/08 06:05:29;;;;;;;13.90;6.30;;;;;;;;;;4948429;28;20055;-63
2022/03/08 06:07:55;;;;;;;12.40;5.82;;;;;;;;;;4947344;28;20532;-63
2022/03/08 06:10:22;;;;;;;12.10;5.97;;;;;;;;;;4948901;28;20183;-64
2022/03/08 06:12:48;;;;;;;13.25;6.45;;;;;;;;;;4948738;28;20063;-65
2022/03/08 06:15:14;;;;;;;12.05;6.32;;;;;;;;;;4948249;28;21478;-65
2022/03/08 06:17:41;;;;;;;11.15;6.25;;;;;;;;;;4945406;28;20533;-65
2022/03/08 06:20:07;;;;;;;11.10;5.82;;;;;;;;;;4947248;28;20075;-66
2022/03/08 06:22:34;;;;;;;13.48;6.45;;;;;;;;;;4947924;28;20060;-65
2022/03/08 06:25:00;;;;;;;13.18;6.70;;;;;;;;;;4948700;28;20550;-63
2022/03/08 06:27:27;;;;;;;10.95;5.60;;;;;;;;;;4948388;28;20107;-64
2022/03/08 06:29:53;;;;;;;13.30;6.22;;;;;;;;;;4947977;28;20056;-64
2022/03/08 06:32:20;;;;;;;11.88;6.20;;;;;;;;;;4948186;28;20520;-63
2022/03/08 06:34:46;;;;;;;11.45;5.50;;;;;;;;;;4948328;28;20055;-63
2022/03/08 06:37:12;;;;;;;10.68;5.65;;;;;;;;;;4947645;28;20055;-64
2022/03/08 06:39:39;;;;;;;11.65;5.93;;;;;;;;;;4945006;28;20055;-64
2022/03/08 06:42:05;;;;;;;13.68;6.72;;;;;;;;;;4947819;28;20441;-63
2022/03/08 06:44:31;;;;;;;13.50;5.60;;;;;;;;;;4947728;28;20056;-63
2022/03/08 06:46:58;;;;;;;13.40;6.28;;;;;;;;;;4947200;28;20052;-63
2022/03/08 06:49:24;;;;;;;11.68;5.57;;;;;;;;;;4947881;28;20150;-63
2022/03/08 06:51:51;;;;;;;9.77;5.38;;;;;;;;;;4951126;28;20059;-63
2022/03/08 06:54:17;;;;;;;10.30;5.20;;;;;;;;;;4951176;28;20510;-65
2022/03/08 06:56:44;;;;;;;11.35;6.05;;;;;;;;;;4945348;28;20052;-62
2022/03/08 06:59:10;;;;;;;11.98;5.65;;;;;;;;;;4950091;28;20142;-63
2022/03/08 07:01:36;;;;;;;10.65;4.90;;;;;;;;;;4949920;28;20052;-63
2022/03/08 07:04:03;;;;;;;13.20;5.80;;;;;;;;;;4950601;28;20952;-63
2022/03/08 07:06:29;;;;;;;9.27;4.40;;;;;;;;;;4949932;28;20143;-63
2022/03/08 07:08:56;;;;;;;10.52;5.47;;;;;;;;;;4950683;28;20143;-64
2022/03/08 07:11:23;;;;;;;11.55;5.60;;;;;;;;;;4948740;28;20059;-64
2022/03/08 07:13:49;;;;;;;11.25;5.43;;;;;;;;;;4946113;28;20062;-64
2022/03/08 07:16:15;;;;;;;9.40;5.13;;;;;;;;;;4950934;28;20139;-64
2022/03/08 07:18:42;;;;;;;10.88;5.85;;;;;;;;;;4949264;28;20553;-63
2022/03/08 07:21:08;;;;;;;10.32;5.95;;;;;;;;;;4947539;28;20460;-64
2022/03/08 07:23:34;;;;;;;12.57;5.80;;;;;;;;;;4947924;28;20079;-64
2022/03/08 07:26:01;;;;;;;11.63;5.75;;;;;;;;;;4948504;28;20465;-65
2022/03/08 07:28:27;;;;;;;11.15;5.75;;;;;;;;;;4949606;28;20060;-63
2022/03/08 07:30:59;;;;;;;11.48;5.68;;;;;;;;;;4948930;28;20542;-64
2022/03/08 07:33:26;;;;;;;13.57;5.47;;;;;;;;;;4951017;28;20051;-64
2022/03/08 07:35:53;;;;;;;13.45;5.10;;;;;;;;;;4930845;29;20560;-64
2022/03/08 07:38:19;;;;;;;11.40;5.68;;;;;;;;;;4932044;29;20152;-64
2022/03/08 07:40:45;;;;;;;13.05;5.68;;;;;;;;;;4931290;28;20091;-64
2022/03/08 07:43:12;;;;;;;11.13;5.35;;;;;;;;;;4931701;29;20921;-65
2022/03/08 07:45:38;;;;;;;11.80;5.35;;;;;;;;;;4931345;29;20162;-64
2022/03/08 07:48:05;;;;;;;10.95;5.53;;;;;;;;;;4938732;28;20051;-64
2022/03/08 07:50:32;;;;;;;10.00;4.97;;;;;;;;;;4951031;28;20062;-64
2022/03/08 07:53:02;;;;;;;10.93;5.13;;;;;;;;;;4950354;28;20520;-64
2022/03/08 07:55:31;;;;;;;10.82;6.10;;;;;;;;;;4938241;28;20044;-63
2022/03/08 07:57:58;;;;;;;9.10;5.03;;;;;;;;;;4936688;28;20056;-63
2022/03/08 08:00:28;;;;;;;9.48;5.03;;;;;;;;;;4950679;28;20528;-63
2022/03/08 08:02:54;;;;;;;9.98;5.45;;;;;;;;;;4949078;28;20058;-64
2022/03/08 08:05:21;;;;;;;11.50;5.50;;;;;;;;;;4950224;28;20135;-64
2022/03/08 08:07:47;;;;;;;14.18;5.75;;;;;;;;;;4946637;28;20056;-64
2022/03/08 08:10:14;;;;;;;9.30;4.70;;;;;;;;;;4931421;28;20806;-63
2022/03/08 08:12:40;;;;;;;7.95;4.45;;;;;;;;;;4945409;28;20189;-63
2022/03/08 08:15:07;;;;;;;10.80;4.45;;;;;;;;;;4950843;28;20090;-63
2022/03/08 08:17:33;;;;;;;8.48;4.45;;;;;;;;;;4947535;28;20090;-63
2022/03/08 08:19:59;;;;;;;12.02;5.32;;;;;;;;;;4934463;28;20056;-63
2022/03/08 08:22:26;;;;;;;8.13;3.80;;;;;;;;;;4950145;28;20205;-63
2022/03/08 08:24:52;;;;;;;10.93;5.07;;;;;;;;;;4949992;28;20064;-62
2022/03/08 08:27:18;;;;;;;7.35;4.32;;;;;;;;;;4949591;28;20087;-63
2022/03/08 08:29:45;;;;;;;8.00;4.13;;;;;;;;;;4949300;28;20150;-62
2022/03/08 08:32:11;;;;;;;8.15;4.30;;;;;;;;;;4950176;28;20875;-64
2022/03/08 08:34:38;;;;;;;8.15;3.78;;;;;;;;;;4949783;28;20061;-62
2022/03/08 08:37:04;;;;;;;8.05;4.40;;;;;;;;;;4949887;28;20150;-63
2022/03/08 08:39:30;;;;;;;10.00;4.72;;;;;;;;;;4949724;28;20130;-62
2022/03/08 08:41:57;;;;;;;10.43;4.40;;;;;;;;;;4950034;28;20869;-62
2022/03/08 08:44:26;;;;;;;10.80;4.60;;;;;;;;;;4948437;28;20070;-63
2022/03/08 08:46:53;;;;;;;9.13;4.65;;;;;;;;;;4949008;28;20059;-63
2022/03/08 08:49:19;;;;;;;8.65;4.57;;;;;;;;;;4947408;28;20142;-63
2022/03/08 08:51:46;;;;;;;15.27;4.45;;;;;;;;;;4949039;28;20056;-63
2022/03/08 08:54:12;;;;;;;9.13;4.50;;;;;;;;;;4950136;28;20081;-62
2022/03/08 08:56:38;;;;;;;7.60;4.40;;;;;;;;;;4949830;28;20070;-63
2022/03/08 08:59:05;;;;;;;8.20;3.88;;;;;;;;;;4949756;28;20107;-63
2022/03/08 09:01:32;;;;;;;7.15;4.15;;;;;;;;;;4949353;28;20056;-63
2022/03/08 09:03:58;;;;;;;6.38;3.53;;;;;;;;;;4948640;28;20103;-63
2022/03/08 09:06:26;;;;;;;6.78;3.13;;;;;;;;;;4948713;28;20602;-63
2022/03/08 09:08:52;;;;;;;8.23;4.43;;;;;;;;;;4940870;28;20144;-62
2022/03/08 09:11:19;;;;;;;7.90;3.70;;;;;;;;;;4948704;28;20107;-63
2022/03/08 09:13:45;;;;;;;8.35;4.40;;;;;;;;;;4931201;28;20530;-63
2022/03/08 09:16:14;;;;;;;10.32;3.13;;;;;;;;;;4948918;28;20056;-64
2022/03/08 09:18:40;;;;;;;;;;;;;;;;;;4950003;28;20114;-64
2022/03/08 09:21:06;;;;;;;10.40;4.40;;;;;;;;;;4948016;28;46628;-65
2022/03/08 09:23:33;;;;;;;8.30;4.47;;;;;;;;;;4949314;28;20075;-65
2022/03/08 09:25:59;;;;;;;6.22;3.78;;;;;;;;;;4948407;28;20085;-65
2022/03/08 09:28:26;;;;;;;6.13;3.47;;;;;;;;;;4949445;28;20147;-64
2022/03/08 09:30:52;;;;;;;6.85;3.20;;;;;;;;;;4949595;28;20147;-64
2022/03/08 09:33:18;;;;;;;8.32;3.60;;;;;;;;;;4948903;28;20055;-63
2022/03/08 09:35:45;;;;;;;6.47;3.72;;;;;;;;;;4948354;28;20054;-63
2022/03/08 09:38:13;;;;;;;7.28;4.00;;;;;;;;;;4949303;28;20553;-63
2022/03/08 09:40:39;;;;;;;8.97;4.37;;;;;;;;;;4948719;28;20544;-63
2022/03/08 09:43:06;;;;;;;7.95;3.33;;;;;;;;;;4948658;28;20094;-64
2022/03/08 09:45:33;;;;;;;9.15;4.57;;;;;;;;;;4941180;28;20474;-64
2022/03/08 09:48:03;;;;;;;6.53;3.35;;;;;;;;;;4948646;28;20047;-64
2022/03/08 09:50:29;;;;;;;6.15;3.45;;;;;;;;;;4949264;28;20103;-64
2022/03/08 09:52:57;;;;;;;8.70;4.57;;;;;;;;;;4948791;28;20918;-64
2022/03/08 09:55:25;;;;;;;7.85;3.40;;;;;;;;;;4948487;28;20490;-64
2022/03/08 09:57:52;;;;;;;9.68;4.40;;;;;;;;;;4948906;28;20502;-63
2022/03/08 10:00:19;;;;;;;8.07;4.47;;;;;;;;;;4949080;28;20822;-63
2022/03/08 10:02:53;;;;;;;7.25;3.47;;;;;;;;;;4948267;28;20059;-65
2022/03/08 10:05:23;;;;;;;9.88;4.63;;;;;;;;;;4947838;28;20059;-63
2022/03/08 10:08:04;;;;;;;7.25;3.80;;;;;;;;;;4948453;28;20131;-63
2022/03/08 10:10:31;;;;;;;6.95;3.60;;;;;;;;;;4948509;28;20115;-63
2022/03/08 10:12:59;;;;;;;8.15;4.20;;;;;;;;;;4948141;28;20199;-63
2022/03/08 10:15:25;;;;;;;8.18;3.85;;;;;;;;;;4948944;28;20048;-63
2022/03/08 10:17:52;;;;;;;6.82;3.70;;;;;;;;;;4947996;28;20066;-61
2022/03/08 10:20:29;;;;;;;7.22;3.83;;;;;;;;;;4948133;28;20060;-62
2022/03/08 10:22:55;;;;;;;6.68;3.22;;;;;;;;;;4948924;28;20135;-62
2022/03/08 10:25:25;;;;;;;8.27;4.00;;;;;;;;;;4949025;28;20134;-62
2022/03/08 10:27:54;;;;;;;7.13;3.28;;;;;;;;;;4951913;28;20506;-62
2022/03/08 10:30:21;;;;;;;7.32;4.25;;;;;;;;;;4951476;28;20147;-63
2022/03/08 10:33:02;;;;;;;7.90;3.75;;;;;;;;;;4951828;28;20063;-62
2022/03/08 10:35:29;;;;;;;10.25;4.30;;;;;;;;;;4951085;28;20151;-63
2022/03/08 10:37:57;;;;;;;11.27;4.40;;;;;;;;;;4951332;28;20087;-63
2022/03/08 10:40:30;;;;;;;7.10;3.65;;;;;;;;;;4951916;28;20052;-63
2022/03/08 10:43:00;;;;;;;8.90;3.65;;;;;;;;;;4951230;28;20659;-61
2022/03/08 10:45:28;;;;;;;10.43;3.30;;;;;;;;;;4951223;28;20052;-62
2022/03/08 10:47:54;;;;;;;8.37;3.60;;;;;;;;;;4950301;28;20051;-62
2022/03/08 10:50:23;;;;;;;6.32;2.25;;;;;;;;;;4951026;28;20066;-62
2022/03/08 10:52:50;;;;;;;7.32;3.60;;;;;;;;;;4951386;28;20171;-62
2022/03/08 10:55:25;;;;;;;8.77;3.40;;;;;;;;;;4951220;28;20545;-61
2022/03/08 10:57:54;;;;;;;6.72;3.70;;;;;;;;;;4951978;28;20065;-62
2022/03/08 11:00:26;;;;;;;6.20;3.13;;;;;;;;;;4950647;28;20056;-62
2022/03/08 11:02:58;;;;;;;7.43;3.50;;;;;;;;;;4951414;28;20143;-62
2022/03/08 11:05:27;;;;;;;9.90;4.20;;;;;;;;;;4951277;28;20419;-62
2022/03/08 11:07:53;;;;;;;;;;;;;;;;;;4952442;28;20072;-62
2022/03/08 11:10:20;;;;;;;9.30;3.03;;;;;;;;;;4950686;28;45766;-62
2022/03/08 11:12:47;;;;;;;6.75;3.10;;;;;;;;;;4951186;28;20602;-62
2022/03/08 11:15:14;;;;;;;9.80;4.53;;;;;;;;;;4950736;28;20510;-62
2022/03/08 11:17:49;;;;;;;9.30;3.77;;;;;;;;;;4950914;28;20111;-61
2022/03/08 11:20:17;;;;;;;7.97;4.15;;;;;;;;;;4950083;28;20520;-62
2022/03/08 11:22:43;;;;;;;5.30;2.55;;;;;;;;;;4937681;28;20087;-62
2022/03/08 11:25:11;;;;;;;7.35;3.70;;;;;;;;;;4951131;28;20063;-62
2022/03/08 11:27:57;;;;;;;6.77;3.50;;;;;;;;;;4950071;28;20055;-62
2022/03/08 11:30:26;;;;;;;7.07;3.50;;;;;;;;;;4947697;28;20483;-62
2022/03/08 11:33:04;;;;;;;9.77;3.95;;;;;;;;;;4951026;28;20075;-62
2022/03/08 11:35:38;;;;;;;7.95;3.85;;;;;;;;;;4951053;28;20094;-62
2022/03/08 11:38:05;;;;;;;6.53;3.28;;;;;;;;;;4950563;28;20155;-62
2022/03/08 11:40:33;;;;;;;6.90;3.53;;;;;;;;;;4950925;28;20596;-62
2022/03/08 11:43:03;;;;;;;7.30;3.28;;;;;;;;;;4950261;28;20055;-62
2022/03/08 11:45:30;;;;;;;6.45;3.25;;;;;;;;;;4950764;28;20490;-62
2022/03/08 11:47:58;;;;;;;5.25;2.78;;;;;;;;;;4949790;28;20519;-62
2022/03/08 11:50:29;;;;;;;8.45;3.00;;;;;;;;;;4951059;28;20052;-63
2022/03/08 11:53:15;;;;;;;6.18;3.60;;;;;;;;;;4950974;28;20048;-62
2022/03/08 11:55:48;;;;;;;6.22;3.70;;;;;;;;;;4949701;28;20542;-62
2022/03/08 11:58:16;;;;;;;5.93;2.83;;;;;;;;;;4950307;28;20059;-62
2022/03/08 12:00:43;;;;;;;6.97;2.60;;;;;;;;;;4950530;28;20087;-62
2022/03/08 12:03:12;;;;;;;5.65;2.60;;;;;;;;;;4950936;28;20154;-62
2022/03/08 12:05:41;;;;;;;6.97;3.15;;;;;;;;;;4949763;28;20182;-61
2022/03/08 12:08:37;;;;;;;6.13;2.78;;;;;;;;;;4947607;28;20091;-62
2022/03/08 12:11:05;;;;;;;12.85;3.40;;;;;;;;;;4937959;28;20083;-62
2022/03/08 12:13:43;;;;;;;9.43;3.03;;;;;;;;;;4949574;28;20558;-62
2022/03/08 12:16:10;;;;;;;6.47;3.33;;;;;;;;;;4950263;28;20159;-62
2022/03/08 12:18:38;;;;;;;5.37;2.80;;;;;;;;;;4950225;28;20142;-62
2022/03/08 12:21:17;;;;;;;7.35;3.25;;;;;;;;;;4949822;28;20574;-62
2022/03/08 12:23:50;;;;;;;8.05;2.90;;;;;;;;;;4949687;28;20091;-62
2022/03/08 12:26:24;;;;;;;7.97;3.38;;;;;;;;;;4949179;28;20064;-62
2022/03/08 12:29:21;;;;;;;8.18;3.33;;;;;;;;;;4949528;28;20056;-62
2022/03/08 12:32:01;;;;;;;5.65;2.65;;;;;;;;;;4950139;28;20081;-62
2022/03/08 12:34:40;;;;;;;12.45;3.55;;;;;;;;;;4950580;28;20056;-62
2022/03/08 12:37:35;;;;;;;6.47;3.00;;;;;;;;;;4931302;28;20056;-62
2022/03/08 12:40:17;;;;;;;5.93;2.90;;;;;;;;;;4949549;28;20118;-63
2022/03/08 12:42:43;;;;;;;6.32;3.15;;;;;;;;;;4946863;28;20103;-63
2022/03/08 12:45:15;;;;;;;6.10;2.80;;;;;;;;;;4949591;28;20051;-62
2022/03/08 12:47:48;;;;;;;6.22;2.90;;;;;;;;;;4948933;28;20060;-62
2022/03/08 12:50:22;;;;;;;7.50;3.05;;;;;;;;;;4949197;28;20058;-63
2022/03/08 12:52:50;;;;;;;11.77;3.42;;;;;;;;;;4949885;28;20048;-63
2022/03/08 12:55:17;;;;;;;6.78;3.28;;;;;;;;;;4949915;28;20066;-62
2022/03/08 12:57:51;;;;;;;7.10;3.05;;;;;;;;;;4948979;28;20131;-63
2022/03/08 13:00:37;;;;;;;5.80;2.72;;;;;;;;;;4949440;28;20179;-62
2022/03/08 13:03:06;;;;;;;6.78;3.67;;;;;;;;;;4949129;28;20087;-63
2022/03/08 13:05:34;;;;;;;6.07;3.10;;;;;;;;;;4948940;28;20135;-62
2022/03/08 13:08:01;;;;;;;6.35;3.33;;;;;;;;;;4947832;28;20155;-63
2022/03/08 13:10:28;;;;;;;7.10;3.33;;;;;;;;;;4948973;28;20121;-63
2022/03/08 13:12:58;;;;;;;12.40;3.67;;;;;;;;;;4948540;28;20088;-63
2022/03/08 13:15:26;;;;;;;5.30;3.08;;;;;;;;;;4949587;28;20052;-63
2022/03/08 13:17:54;;;;;;;6.30;3.45;;;;;;;;;;4951167;28;20158;-63
2022/03/08 13:20:25;;;;;;;6.50;3.08;;;;;;;;;;4949118;28;20051;-63
2022/03/08 13:22:51;;;;;;;7.93;3.60;;;;;;;;;;4949620;28;20495;-62
2022/03/08 13:25:19;;;;;;;7.75;3.40;;;;;;;;;;4948858;28;20574;-62
2022/03/08 13:27:48;;;;;;;6.78;3.60;;;;;;;;;;4949188;28;20120;-62
2022/03/08 13:30:29;;;;;;;9.90;3.45;;;;;;;;;;4949242;28;20065;-63
2022/03/08 13:33:27;;;;;;;8.63;3.70;;;;;;;;;;4948937;28;20512;-63
2022/03/08 13:35:55;;;;;;;6.18;3.65;;;;;;;;;;4926741;28;20059;-63
2022/03/08 13:38:25;;;;;;;5.57;3.03;;;;;;;;;;4949360;28;20547;-62
2022/03/08 13:40:52;;;;;;;9.18;3.60;;;;;;;;;;4949601;28;20503;-63
2022/03/08 13:43:20;;;;;;;7.30;3.70;;;;;;;;;;4949127;28;20066;-63
2022/03/08 13:46:07;;;;;;;7.13;3.30;;;;;;;;;;4948923;28;20463;-63
2022/03/08 13:48:36;;;;;;;6.00;3.15;;;;;;;;;;4949100;28;20593;-63
2022/03/08 13:51:04;;;;;;;6.32;3.42;;;;;;;;;;4948296;28;20066;-63
2022/03/08 13:53:31;;;;;;;6.75;3.50;;;;;;;;;;4948813;28;20507;-63
2022/03/08 13:55:58;;;;;;;5.45;2.33;;;;;;;;;;4948802;28;20058;-63
2022/03/08 13:58:25;;;;;;;8.77;3.65;;;;;;;;;;4947993;28;20055;-63
2022/03/08 14:00:52;;;;;;;6.32;3.70;;;;;;;;;;4947020;28;20131;-63
2022/03/08 14:03:19;;;;;;;10.77;3.97;;;;;;;;;;4949275;28;20083;-63
2022/03/08 14:05:52;;;;;;;8.90;3.50;;;;;;;;;;4948738;28;20052;-63
2022/03/08 14:08:22;;;;;;;10.75;3.85;;;;;;;;;;4948743;28;20048;-63
2022/03/08 14:11:03;;;;;;;8.43;3.50;;;;;;;;;;4948843;28;20052;-63
2022/03/08 14:13:31;;;;;;;8.15;3.70;;;;;;;;;;4948102;28;20115;-63
2022/03/08 14:16:15;;;;;;;5.53;2.97;;;;;;;;;;4947889;28;20070;-63
2022/03/08 14:18:49;;;;;;;6.22;3.45;;;;;;;;;;4948193;28;20062;-64
2022/03/08 14:21:36;;;;;;;6.43;3.30;;;;;;;;;;4948480;28;20094;-64
2022/03/08 14:24:14;;;;;;;11.63;4.07;;;;;;;;;;4948192;28;20055;-64
2022/03/08 14:26:56;;;;;;;9.10;3.53;;;;;;;;;;4947986;28;20056;-64
2022/03/08 14:29:23;;;;;;;7.57;3.67;;;;;;;;;;4929540;29;20503;-64
2022/03/08 14:31:49;;;;;;;10.82;3.58;;;;;;;;;;4928790;29;20056;-63
2022/03/08 14:34:19;;;;;;;7.35;3.53;;;;;;;;;;4929215;29;20124;-64
2022/03/08 14:36:51;;;;;;;10.13;3.45;;;;;;;;;;4942173;28;20063;-64
2022/03/08 14:39:19;;;;;;;8.77;3.60;;;;;;;;;;4947893;28;20060;-64
2022/03/08 14:42:04;;;;;;;8.05;3.60;;;;;;;;;;4947578;28;20142;-64